NCAR-RAP Real-Time Weather Data

Output produced by METARs form (12 May 2021  11:27 UTC)
found at http://weather.rap.ucar.edu/surface/
 
KUNO 121053Z AUTO 05007KT 10SM OVC080 10/02 A3031 RMK AO2 SLP262 T01000022
KUNO 120953Z AUTO 04008KT 10SM OVC075 10/02 A3030 RMK AO2 SLP256 T01000022
KUNO 120853Z AUTO 05008KT 10SM OVC075 10/03 A3027 RMK AO2 SLP248 T01000028 53009
KUNO 120753Z AUTO 04008KT 10SM OVC070 11/03 A3026 RMK AO2 SLP244 T01060033
KUNO 120653Z AUTO 05009KT 10SM OVC070 11/04 A3025 RMK AO2 SLP238 T01110039
KUNO 120553Z AUTO 04007KT 10SM BKN070 OVC120 12/05 A3025 RMK AO2 SLP238 T01170050 10139 20117 401720044 50006
KUNO 120453Z AUTO 05009KT 10SM OVC070 12/06 A3025 RMK AO2 SLP239 T01220061
KUNO 120353Z AUTO 04008KT 10SM OVC070 13/07 A3024 RMK AO2 SLP238 T01280072
KUNO 120253Z AUTO 04009KT 10SM OVC070 13/08 A3023 RMK AO2 SLP232 T01330078 53015
KUNO 120153Z AUTO 01004KT 10SM SCT050 OVC070 13/08 A3021 RMK AO2 SLP227 T01280083
KUNO 120053Z AUTO 00000KT 10SM OVC070 13/08 A3020 RMK AO2 SLP225 T01330078
KUNO 112353Z AUTO 16004KT 10SM OVC070 14/07 A3018 RMK AO2 SLP219 T01390072 10172 20139 55000
KUNO 112253Z AUTO 10008KT 10SM OVC075 16/05 A3016 RMK AO2 SLP211 T01610050
KUNO 112153Z AUTO 16004KT 10SM OVC080 16/07 A3017 RMK AO2 SLP217 T01610067
KUNO 112053Z AUTO 11005KT 10SM BKN080 OVC090 17/05 A3018 RMK AO2 SLP219 T01670050 55004